< < Back
Terminal Aerodrome Forecast


Current Version              Previous Versions:   1  2  3  4  5  6  7  8  9  

Terminal Aerodrome Forecast

053
FTUS44 KBMX 222300
TAFMGM
TAF
KMGM 222326Z 2300/2324 35003KT P6SM SKC=

Latest METAR

550
SAUS80 KWBC 230900 RRA
MTRMGM
METAR KMGM 230853Z AUTO 05003KT 10SM CLR 08/05 A3009 RMK AO2 SLP188
T00830050 56005


USA.gov is the U.S. government's official web portal to all federal, state and local government web resources and services.